createdAt,value
2016-02-19T00:00:11.063Z,0
2016-02-19T00:01:11.049Z,0
2016-02-19T00:02:11.052Z,0
2016-02-19T00:03:11.055Z,0
2016-02-19T00:04:11.073Z,0
2016-02-19T00:05:11.029Z,0
2016-02-19T00:06:11.016Z,0
2016-02-19T00:07:11.002Z,0
2016-02-19T00:08:11.006Z,0
2016-02-19T00:09:10.993Z,0
2016-02-19T00:10:10.996Z,0
2016-02-19T00:11:10.998Z,0
2016-02-19T00:12:10.970Z,0
2016-02-19T00:13:10.238Z,0
2016-02-19T00:14:10.959Z,0
2016-02-19T00:15:10.962Z,0
2016-02-19T00:16:10.948Z,0
2016-02-19T00:17:10.936Z,0
2016-02-19T00:18:10.939Z,0
2016-02-19T00:19:10.942Z,0
2016-02-19T00:20:10.944Z,0
2016-02-19T00:21:10.931Z,0
2016-02-19T00:22:10.918Z,0
2016-02-19T00:23:10.889Z,0
2016-02-19T00:24:10.877Z,0
2016-02-19T00:25:10.926Z,0
2016-02-19T00:26:10.882Z,0
2016-02-19T00:27:10.870Z,0
2016-02-19T00:28:10.888Z,0
2016-02-19T00:29:10.874Z,0
2016-02-19T00:30:10.881Z,0
2016-02-19T00:31:10.837Z,0
2016-02-19T00:32:10.856Z,0
2016-02-19T00:33:10.843Z,0
2016-02-19T00:34:10.814Z,0
2016-02-19T00:35:10.816Z,0
2016-02-19T00:36:10.835Z,0
2016-02-19T00:37:10.837Z,0
2016-02-19T00:38:10.792Z,0
2016-02-19T00:39:10.796Z,0
2016-02-19T00:40:10.767Z,0
2016-02-19T00:41:10.770Z,0
2016-02-19T00:42:10.758Z,0
2016-02-19T00:43:10.760Z,0
2016-02-19T00:44:10.778Z,0
2016-02-19T00:45:10.750Z,0
2016-02-19T00:46:10.752Z,0
2016-02-19T00:47:10.739Z,0
2016-02-19T00:48:10.741Z,0
2016-02-19T00:49:10.714Z,0
2016-02-19T00:50:10.732Z,0
2016-02-19T00:51:10.735Z,0
2016-02-19T00:52:10.691Z,0
2016-02-19T00:53:10.677Z,0
2016-02-19T00:54:10.665Z,0
2016-02-19T00:55:10.683Z,0
2016-02-19T00:56:10.701Z,0
2016-02-19T00:57:10.657Z,0
2016-02-19T00:58:10.644Z,0
2016-02-19T00:59:10.646Z,0
2016-02-19T01:00:10.634Z,0
2016-02-19T01:01:10.637Z,0
2016-02-19T01:02:10.639Z,0
2016-02-19T01:03:10.610Z,0
2016-02-19T01:04:10.629Z,0
2016-02-19T01:05:10.459Z,0
2016-02-19T01:06:10.596Z,0
2016-02-19T01:07:10.599Z,0
2016-02-19T01:08:10.585Z,0
2016-02-19T01:09:10.573Z,0
2016-02-19T01:10:10.560Z,0
2016-02-19T01:11:10.546Z,0
2016-02-19T01:12:10.565Z,0
2016-02-19T01:13:10.537Z,0
2016-02-19T01:14:10.540Z,0
2016-02-19T01:15:10.542Z,0
2016-02-19T01:16:10.529Z,0
2016-02-19T01:17:10.532Z,0
2016-02-19T01:18:10.503Z,0
2016-02-19T01:19:10.506Z,0
2016-02-19T01:20:10.508Z,0
2016-02-19T01:21:10.480Z,0
2016-02-19T01:22:10.484Z,0
2016-02-19T01:23:10.486Z,0
2016-02-19T01:24:10.472Z,0
2016-02-19T01:25:10.492Z,0
2016-02-19T01:26:10.447Z,0
2016-02-19T01:27:10.450Z,0
2016-02-19T01:28:10.436Z,0
2016-02-19T01:29:10.439Z,0
2016-02-19T01:30:10.270Z,0
2016-02-19T01:31:10.414Z,0
2016-02-19T01:32:10.417Z,0
2016-02-19T01:33:10.403Z,0
2016-02-19T01:34:10.390Z,0
2016-02-19T01:35:10.393Z,0
2016-02-19T01:36:10.239Z,0
2016-02-19T01:37:10.398Z,0
2016-02-19T01:38:10.369Z,0
2016-02-19T01:39:10.357Z,0
2016-02-19T01:40:10.374Z,0
2016-02-19T01:41:10.347Z,0
2016-02-19T01:42:10.334Z,0
2016-02-19T01:43:10.195Z,0
2016-02-19T01:44:10.183Z,0
2016-02-19T01:45:10.326Z,0
2016-02-19T01:46:10.345Z,0
2016-02-19T01:47:10.301Z,0
2016-02-19T01:48:10.303Z,0
2016-02-19T01:49:10.290Z,0
2016-02-19T01:50:10.293Z,0
2016-02-19T01:51:10.295Z,0
2016-02-19T01:52:10.111Z,0
2016-02-19T01:53:10.270Z,0
2016-02-19T01:54:10.242Z,0
2016-02-19T01:55:10.244Z,0
2016-02-19T01:56:10.278Z,0
2016-02-19T01:57:10.249Z,0
2016-02-19T01:58:10.252Z,0
2016-02-19T01:59:09.472Z,0
2016-02-19T02:00:10.225Z,0
2016-02-19T02:01:10.197Z,0
2016-02-19T02:02:10.199Z,0
2016-02-19T02:03:10.249Z,0
2016-02-19T02:04:10.174Z,0
2016-02-19T02:05:10.052Z,0
2016-02-19T02:06:10.179Z,0
2016-02-19T02:07:10.182Z,0
2016-02-19T02:08:10.154Z,0
2016-02-19T02:09:10.172Z,0
2016-02-19T02:10:10.143Z,0
2016-02-19T02:11:10.162Z,0
2016-02-19T02:12:10.132Z,0
2016-02-19T02:13:10.121Z,0
2016-02-19T02:14:10.138Z,0
2016-02-19T02:15:10.109Z,0
2016-02-19T02:16:10.129Z,0
2016-02-19T02:17:10.084Z,0
2016-02-19T02:18:10.087Z,0
2016-02-19T02:19:10.105Z,0
2016-02-19T02:20:10.295Z,0
2016-02-19T02:21:10.079Z,0
2016-02-19T02:22:10.067Z,0
2016-02-19T02:23:10.054Z,0
2016-02-19T02:24:10.056Z,0
2016-02-19T02:25:10.058Z,0
2016-02-19T02:26:10.014Z,0
2016-02-19T02:27:10.033Z,0
2016-02-19T02:28:10.020Z,0
2016-02-19T02:29:10.023Z,0
2016-02-19T02:30:10.025Z,0
2016-02-19T02:31:09.996Z,0
2016-02-19T02:32:10.000Z,0
2016-02-19T02:33:09.986Z,0
2016-02-19T02:34:09.988Z,0
2016-02-19T02:35:10.008Z,0
2016-02-19T02:36:09.963Z,0
2016-02-19T02:37:09.825Z,0
2016-02-19T02:38:09.796Z,0
2016-02-19T02:39:09.971Z,0
2016-02-19T02:40:09.943Z,0
2016-02-19T02:41:09.945Z,0
2016-02-19T02:42:09.917Z,0
2016-02-19T02:43:09.948Z,0
2016-02-19T02:44:11.629Z,0
2016-02-19T02:45:09.598Z,0
2016-02-19T02:46:14.422Z,0
2016-02-19T02:47:09.893Z,0
2016-02-19T02:48:09.895Z,0
2016-02-19T02:49:09.914Z,0
2016-02-19T02:50:09.854Z,0
2016-02-19T02:51:09.857Z,0
2016-02-19T02:52:09.891Z,0
2016-02-19T02:53:09.862Z,0
2016-02-19T02:54:09.850Z,0
2016-02-19T02:55:09.947Z,0
2016-02-19T02:56:09.864Z,0
2016-02-19T02:57:09.820Z,0
2016-02-19T02:58:09.806Z,0
2016-02-19T02:59:09.825Z,0
2016-02-19T03:00:09.796Z,0
2016-02-19T03:01:09.784Z,0
2016-02-19T03:02:09.786Z,0
2016-02-19T03:03:09.773Z,0
2016-02-19T03:04:09.760Z,0
2016-02-19T03:05:09.763Z,0
2016-02-19T03:06:09.781Z,0
2016-02-19T03:07:09.753Z,0
2016-02-19T03:08:09.756Z,0
2016-02-19T03:09:09.742Z,0
2016-02-19T03:10:09.744Z,0
2016-02-19T03:11:09.732Z,0
2016-02-19T03:12:09.735Z,0
2016-02-19T03:13:09.706Z,0
2016-02-19T03:14:09.724Z,0
2016-02-19T03:15:09.696Z,0
2016-02-19T03:16:09.698Z,0
2016-02-19T03:17:10.499Z,0
2016-02-19T03:18:09.688Z,0
2016-02-19T03:19:09.660Z,0
2016-02-19T03:20:09.662Z,0
2016-02-19T03:21:09.649Z,0
2016-02-19T03:22:09.637Z,0
2016-02-19T03:23:10.295Z,0
2016-02-19T03:24:09.611Z,0
2016-02-19T03:25:09.660Z,0
2016-02-19T03:26:09.616Z,0
2016-02-19T03:27:09.635Z,0
2016-02-19T03:28:09.575Z,0
2016-02-19T03:29:09.624Z,0
2016-02-19T03:30:09.580Z,0
2016-02-19T03:31:09.598Z,0
2016-02-19T03:32:09.570Z,0
2016-02-19T03:33:09.588Z,0
2016-02-19T03:34:09.559Z,0
2016-02-19T03:35:09.594Z,0
2016-02-19T03:36:09.549Z,0
2016-02-19T03:37:09.537Z,0
2016-02-19T03:38:09.524Z,0
2016-02-19T03:39:09.527Z,0
2016-02-19T03:40:09.513Z,0
2016-02-19T03:41:09.532Z,0
2016-02-19T03:42:09.502Z,0
2016-02-19T03:43:09.521Z,0
2016-02-19T03:44:09.493Z,0
2016-02-19T03:45:09.479Z,0
2016-02-19T03:46:09.499Z,0
2016-02-19T03:47:09.469Z,0
2016-02-19T03:48:09.472Z,0
2016-02-19T03:49:09.459Z,0
2016-02-19T03:50:09.462Z,0
2016-02-19T03:51:09.434Z,0
2016-02-19T03:52:09.436Z,0
2016-02-19T03:53:09.439Z,0
2016-02-19T03:54:09.426Z,0
2016-02-19T03:55:09.287Z,0
2016-02-19T03:56:09.448Z,0
2016-02-19T03:57:09.403Z,0
2016-02-19T03:58:09.390Z,0
2016-02-19T03:59:09.376Z,0
2016-02-19T04:00:09.395Z,0
2016-02-19T04:01:10.054Z,0
2016-02-19T04:02:09.369Z,0
2016-02-19T04:03:09.216Z,0
2016-02-19T04:04:09.344Z,0
2016-02-19T04:05:09.346Z,0
2016-02-19T04:06:09.333Z,0
2016-02-19T04:07:09.352Z,0
2016-02-19T04:08:09.322Z,0
2016-02-19T04:09:09.325Z,0
2016-02-19T04:10:09.297Z,0
2016-02-19T04:11:09.362Z,0
2016-02-19T04:12:09.286Z,0
2016-02-19T04:13:09.321Z,0
2016-02-19T04:14:09.277Z,0
2016-02-19T04:15:09.279Z,0
2016-02-19T04:16:09.302Z,0
2016-02-19T04:17:09.305Z,0
2016-02-19T04:18:09.276Z,0
2016-02-19T04:19:09.232Z,0
2016-02-19T04:20:10.657Z,0
2016-02-19T04:21:09.237Z,0
2016-02-19T04:22:09.225Z,0
2016-02-19T04:23:09.228Z,0
2016-02-19T04:24:09.215Z,0
2016-02-19T04:25:09.217Z,0
2016-02-19T04:26:09.220Z,0
2016-02-19T04:27:09.191Z,0
2016-02-19T04:28:09.178Z,0
2016-02-19T04:29:09.164Z,0
2016-02-19T04:30:09.168Z,0
2016-02-19T04:31:09.155Z,0
2016-02-19T04:32:09.173Z,0
2016-02-19T04:33:09.145Z,0
2016-02-19T04:34:09.147Z,0
2016-02-19T04:35:09.119Z,0
2016-02-19T04:36:09.153Z,0
2016-02-19T04:37:09.108Z,0
2016-02-19T04:38:09.158Z,0
2016-02-19T04:39:09.098Z,0
2016-02-19T04:40:09.117Z,0
2016-02-19T04:41:09.088Z,0
2016-02-19T04:42:09.075Z,0
2016-02-19T04:43:09.078Z,0
2016-02-19T04:44:09.112Z,0
2016-02-19T04:45:09.052Z,0
2016-02-19T04:46:08.899Z,0
2016-02-19T04:47:09.042Z,0
2016-02-19T04:48:09.045Z,0
2016-02-19T04:49:09.015Z,0
2016-02-19T04:50:09.050Z,0
2016-02-19T04:51:09.006Z,0
2016-02-19T04:52:09.024Z,0
2016-02-19T04:53:08.980Z,0
2016-02-19T04:54:09.029Z,0
2016-02-19T04:55:08.969Z,0
2016-02-19T04:56:09.004Z,0
2016-02-19T04:57:08.975Z,0
2016-02-19T04:58:08.978Z,0
2016-02-19T04:59:08.933Z,0
2016-02-19T05:00:08.952Z,0
2016-02-19T05:01:08.923Z,0
2016-02-19T05:02:08.925Z,0
2016-02-19T05:03:08.961Z,0
2016-02-19T05:04:08.900Z,0
2016-02-19T05:05:08.918Z,0
2016-02-19T05:06:08.906Z,0
2016-02-19T05:07:08.908Z,0
2016-02-19T05:08:08.895Z,0
2016-02-19T05:09:08.929Z,0
2016-02-19T05:10:08.932Z,0
2016-02-19T05:11:08.747Z,0
2016-02-19T05:12:08.874Z,0
2016-02-19T05:13:08.847Z,0
2016-02-19T05:14:08.880Z,0
2016-02-19T05:15:08.835Z,0
2016-02-19T05:16:08.824Z,0
2016-02-19T05:17:08.810Z,0
2016-02-19T05:18:08.844Z,0
2016-02-19T05:19:08.799Z,0
2016-02-19T05:20:08.802Z,0
2016-02-19T05:21:08.869Z,0
2016-02-19T05:22:08.762Z,0
2016-02-19T05:23:08.749Z,0
2016-02-19T05:24:08.705Z,0
2016-02-19T05:25:08.862Z,0
2016-02-19T05:26:08.672Z,0
2016-02-19T05:27:08.669Z,0
2016-02-19T05:28:08.649Z,0
2016-02-19T05:29:08.600Z,0
2016-02-19T05:30:08.644Z,0
2016-02-19T05:31:08.597Z,0
2016-02-19T05:32:08.598Z,0
2016-02-19T05:33:08.599Z,0
2016-02-19T05:34:08.616Z,0
2016-02-19T05:35:08.585Z,0
2016-02-19T05:36:08.571Z,0
2016-02-19T05:37:08.558Z,0
2016-02-19T05:38:08.575Z,0
2016-02-19T05:39:08.530Z,0
2016-02-19T05:40:08.578Z,0
2016-02-19T05:41:08.535Z,0
2016-02-19T05:42:08.537Z,0
2016-02-19T05:43:08.368Z,0
2016-02-19T05:44:08.496Z,0
2016-02-19T05:45:08.483Z,0
2016-02-19T05:46:08.486Z,0
2016-02-19T05:47:08.473Z,0
2016-02-19T05:48:08.460Z,0
2016-02-19T05:49:08.447Z,0
2016-02-19T05:50:08.480Z,0
2016-02-19T05:51:08.453Z,0
2016-02-19T05:52:08.455Z,0
2016-02-19T05:53:08.442Z,0
2016-02-19T05:54:08.477Z,0
2016-02-19T05:55:08.416Z,0
2016-02-19T05:56:08.466Z,0
2016-02-19T05:57:08.405Z,0
2016-02-19T05:58:08.378Z,0
2016-02-19T05:59:08.380Z,0
2016-02-19T06:00:08.398Z,0
2016-02-19T06:01:08.370Z,0
2016-02-19T06:02:08.373Z,0
2016-02-19T06:03:08.344Z,0
2016-02-19T06:04:08.347Z,0
2016-02-19T06:05:08.224Z,0
2016-02-19T06:06:08.343Z,5
2016-02-19T06:07:08.346Z,5
2016-02-19T06:08:08.317Z,5
2016-02-19T06:09:08.320Z,5
2016-02-19T06:10:08.307Z,5
2016-02-19T06:11:08.357Z,5
2016-02-19T06:12:08.297Z,5
2016-02-19T06:13:08.284Z,5
2016-02-19T06:14:08.302Z,10
2016-02-19T06:15:08.258Z,10
2016-02-19T06:16:08.292Z,10
2016-02-19T06:17:08.247Z,10
2016-02-19T06:18:08.251Z,10
2016-02-19T06:19:08.222Z,10
2016-02-19T06:20:08.240Z,10
2016-02-19T06:21:08.227Z,15
2016-02-19T06:22:08.215Z,15
2016-02-19T06:23:08.217Z,15
2016-02-19T06:24:08.204Z,15
2016-02-19T06:25:08.207Z,20
2016-02-19T06:26:08.257Z,20
2016-02-19T06:27:08.212Z,20
2016-02-19T06:28:08.152Z,25
2016-02-19T06:29:08.171Z,25
2016-02-19T06:30:08.142Z,25
2016-02-19T06:31:08.145Z,30
2016-02-19T06:32:08.179Z,30
2016-02-19T06:33:08.119Z,30
2016-02-19T06:34:08.153Z,35
2016-02-19T06:35:08.124Z,40
2016-02-19T06:36:08.112Z,40
2016-02-19T06:37:08.145Z,45
2016-02-19T06:38:08.086Z,45
2016-02-19T06:39:08.104Z,45
2016-02-19T06:40:08.060Z,50
2016-02-19T06:41:08.094Z,50
2016-02-19T06:42:08.065Z,55
2016-02-19T06:43:08.083Z,55
2016-02-19T06:45:54.716Z,60
2016-02-19T06:46:07.419Z,60
2016-02-19T06:47:07.392Z,60
2016-02-19T06:48:07.394Z,60
2016-02-19T06:49:07.413Z,60
2016-02-19T06:50:07.399Z,60
2016-02-19T06:51:07.371Z,60
2016-02-19T06:52:07.374Z,65
2016-02-19T06:53:07.344Z,65
2016-02-19T06:54:07.348Z,65
2016-02-19T06:55:07.413Z,65
2016-02-19T06:56:07.369Z,70
2016-02-19T06:57:07.355Z,70
2016-02-19T06:58:07.327Z,70
2016-02-19T06:59:07.315Z,75
2016-02-19T07:00:07.332Z,75
2016-02-19T07:01:07.288Z,75
2016-02-19T07:02:06.385Z,80
2016-02-19T07:03:07.309Z,80
2016-02-19T07:04:07.281Z,80
2016-02-19T07:05:07.289Z,85
2016-02-19T07:06:07.292Z,85
2016-02-19T07:07:07.262Z,90
2016-02-19T07:08:07.484Z,90
2016-02-19T07:09:07.253Z,95
2016-02-19T07:10:07.239Z,95
2016-02-19T07:11:07.273Z,95
2016-02-19T07:12:07.229Z,100
2016-02-19T07:13:07.231Z,100
2016-02-19T07:14:07.219Z,105
2016-02-19T07:15:07.205Z,105
2016-02-19T07:16:07.209Z,105
2016-02-19T07:17:07.196Z,110
2016-02-19T07:18:07.213Z,110
2016-02-19T07:19:07.185Z,115
2016-02-19T07:20:07.172Z,115
2016-02-19T07:21:07.191Z,115
2016-02-19T07:22:07.163Z,120
2016-02-19T07:23:07.181Z,120
2016-02-19T07:24:07.136Z,120
2016-02-19T07:25:07.138Z,120
2016-02-19T07:26:07.158Z,120
2016-02-19T07:27:07.144Z,120
2016-02-19T07:28:07.179Z,120
2016-02-19T07:29:06.353Z,125
2016-02-19T07:30:07.121Z,125
2016-02-19T07:31:07.109Z,125
2016-02-19T07:32:07.095Z,125
2016-02-19T07:33:07.115Z,125
2016-02-19T07:34:07.101Z,125
2016-02-19T07:35:07.087Z,130
2016-02-19T07:36:07.090Z,135
2016-02-19T07:37:07.062Z,130
2016-02-19T07:38:07.081Z,130
2016-02-19T07:39:07.051Z,130
2016-02-19T07:40:07.054Z,130
2016-02-19T07:41:07.057Z,130
2016-02-19T07:42:07.028Z,130
2016-02-19T07:43:07.047Z,130
2016-02-19T07:44:07.019Z,130
2016-02-19T07:45:07.099Z,135
2016-02-19T07:46:07.008Z,135
2016-02-19T07:47:07.636Z,135
2016-02-19T07:48:07.483Z,140
2016-02-19T07:49:07.547Z,140
2016-02-19T07:50:07.377Z,140
2016-02-19T07:51:07.413Z,145
2016-02-19T07:52:07.508Z,145
2016-02-19T07:53:07.652Z,145
2016-02-19T07:54:07.405Z,145
2016-02-19T07:55:07.563Z,145
2016-02-19T07:56:07.426Z,145
2016-02-19T07:57:07.210Z,145
2016-02-19T07:58:07.697Z,150
2016-02-19T07:59:07.605Z,150
2016-02-19T08:00:07.702Z,150
2016-02-19T08:01:07.407Z,150
2016-02-19T08:02:07.363Z,150
2016-02-19T08:03:07.585Z,155
2016-02-19T08:04:06.665Z,155
2016-02-19T08:05:07.362Z,160
2016-02-19T08:06:07.176Z,160
2016-02-19T08:07:07.289Z,165
2016-02-19T08:08:08.072Z,170
2016-02-19T08:09:07.278Z,170
2016-02-19T08:10:07.530Z,170
2016-02-19T08:11:06.908Z,175
2016-02-19T08:12:07.286Z,175
2016-02-19T08:13:07.555Z,175
2016-02-19T08:14:07.447Z,180
2016-02-19T08:15:07.403Z,180
2016-02-19T08:16:07.313Z,180
2016-02-19T08:17:06.566Z,180
2016-02-19T08:18:07.380Z,185
2016-02-19T08:19:07.085Z,185
2016-02-19T08:20:07.402Z,190
2016-02-19T08:21:07.341Z,190
2016-02-19T08:22:07.141Z,195
2016-02-19T08:23:07.285Z,195
2016-02-19T08:24:07.224Z,195
2016-02-19T08:25:07.321Z,200
2016-02-19T08:26:07.386Z,200
2016-02-19T08:27:07.357Z,210
2016-02-19T08:28:07.188Z,205
2016-02-19T08:29:07.300Z,210
2016-02-19T08:30:07.304Z,215
2016-02-19T08:31:07.321Z,210
2016-02-19T08:32:07.387Z,210
2016-02-19T08:33:07.280Z,215
2016-02-19T08:34:07.236Z,215
2016-02-19T08:35:07.192Z,220
2016-02-19T08:36:07.335Z,220
2016-02-19T08:37:07.354Z,225
2016-02-19T08:38:07.340Z,225
2016-02-19T08:39:07.327Z,225
2016-02-19T08:40:07.252Z,230
2016-02-19T08:41:07.286Z,230
2016-02-19T08:42:07.335Z,230
2016-02-19T08:43:07.214Z,230
2016-02-19T08:44:07.028Z,235
2016-02-19T08:45:07.406Z,235
2016-02-19T08:46:07.174Z,235
2016-02-19T08:47:07.271Z,240
2016-02-19T08:48:07.320Z,245
2016-02-19T08:49:07.230Z,245
2016-02-19T08:50:07.060Z,250
2016-02-19T08:51:07.250Z,250
2016-02-19T08:52:06.674Z,250
2016-02-19T08:53:07.006Z,255
2016-02-19T08:54:06.524Z,265
2016-02-19T08:55:07.043Z,265
2016-02-19T08:56:07.060Z,265
2016-02-19T08:57:07.048Z,270
2016-02-19T08:58:07.066Z,270
2016-02-19T08:59:07.068Z,270
2016-02-19T09:00:07.165Z,270
2016-02-19T09:01:07.059Z,275
2016-02-19T09:02:07.123Z,275
2016-02-19T09:03:07.157Z,275
2016-02-19T09:04:07.192Z,275
2016-02-19T09:05:07.007Z,275
2016-02-19T09:06:07.150Z,275
2016-02-19T09:07:07.075Z,280
2016-02-19T09:08:07.203Z,285
2016-02-19T09:09:06.283Z,285
2016-02-19T09:10:06.864Z,285
2016-02-19T09:11:07.101Z,290
2016-02-19T09:12:06.964Z,290
2016-02-19T09:13:07.153Z,295
2016-02-19T09:14:07.172Z,295
2016-02-19T09:15:06.955Z,300
2016-02-19T09:16:06.317Z,300
2016-02-19T09:17:06.397Z,305
2016-02-19T09:18:06.980Z,310
2016-02-19T09:19:07.107Z,315
2016-02-19T09:20:07.077Z,315
2016-02-19T09:21:06.518Z,315
2016-02-19T09:22:07.052Z,315
2016-02-19T09:23:06.946Z,315
2016-02-19T09:24:06.964Z,315
2016-02-19T09:25:07.076Z,315
2016-02-19T09:26:06.251Z,315
2016-02-19T09:27:06.799Z,315
2016-02-19T09:28:06.913Z,315
2016-02-19T09:29:07.071Z,315
2016-02-19T09:30:06.948Z,320
2016-02-19T09:31:06.998Z,320
2016-02-19T09:32:07.220Z,320
2016-02-19T09:33:07.004Z,320
2016-02-19T09:34:06.898Z,320
2016-02-19T09:35:07.087Z,320
2016-02-19T09:36:06.981Z,320
2016-02-19T09:37:07.092Z,320
2016-02-19T09:38:07.471Z,320
2016-02-19T09:39:07.192Z,320
2016-02-19T09:40:06.881Z,320
2016-02-19T09:41:07.041Z,320
2016-02-19T09:42:06.981Z,320
2016-02-19T09:43:06.967Z,315
2016-02-19T09:44:07.253Z,315
2016-02-19T09:45:06.739Z,315
2016-02-19T09:46:06.975Z,320
2016-02-19T09:47:07.197Z,325
2016-02-19T09:48:08.044Z,325
2016-02-19T09:49:07.047Z,330
2016-02-19T09:50:07.033Z,330
2016-02-19T09:51:06.974Z,330
2016-02-19T09:52:06.899Z,330
2016-02-19T09:53:06.963Z,330
2016-02-19T09:54:07.061Z,320
2016-02-19T09:55:06.954Z,320
2016-02-19T09:56:06.862Z,320
2016-02-19T09:57:06.427Z,320
2016-02-19T09:58:06.743Z,315
2016-02-19T09:59:06.886Z,315
2016-02-19T10:00:06.888Z,320
2016-02-19T10:01:07.095Z,320
2016-02-19T10:02:06.957Z,315
2016-02-19T10:03:06.850Z,315
2016-02-19T10:04:06.931Z,310
2016-02-19T10:05:06.902Z,315
2016-02-19T10:06:07.061Z,320
2016-02-19T10:07:06.752Z,325
2016-02-19T10:08:06.942Z,325
2016-02-19T10:09:06.867Z,325
2016-02-19T10:10:07.009Z,315
2016-02-19T10:11:06.028Z,300
2016-02-19T10:12:06.389Z,285
2016-02-19T10:13:06.987Z,275
2016-02-19T10:14:07.020Z,290
2016-02-19T10:15:06.742Z,295
2016-02-19T10:16:06.900Z,290
2016-02-19T10:17:06.872Z,290
2016-02-19T10:18:06.906Z,290
2016-02-19T10:19:06.893Z,305
2016-02-19T10:20:06.880Z,305
2016-02-19T10:21:06.977Z,305
2016-02-19T10:22:06.697Z,310
2016-02-19T10:23:06.998Z,315
2016-02-19T10:24:15.203Z,320
2016-02-19T10:25:07.268Z,325
2016-02-19T10:26:06.819Z,325
2016-02-19T10:27:06.930Z,330
2016-02-19T10:28:06.839Z,330
2016-02-19T10:29:07.045Z,335
2016-02-19T10:30:06.891Z,335
2016-02-19T10:31:06.863Z,335
2016-02-19T10:32:06.194Z,340
2016-02-19T10:33:06.228Z,345
2016-02-19T10:34:06.980Z,340
2016-02-19T10:35:06.795Z,340
2016-02-19T10:36:06.860Z,340
2016-02-19T10:37:06.895Z,340
2016-02-19T10:38:06.850Z,335
2016-02-19T10:39:06.900Z,330
2016-02-19T10:40:06.621Z,330
2016-02-19T10:41:06.686Z,325
2016-02-19T10:42:07.049Z,325
2016-02-19T10:43:06.973Z,325
2016-02-19T10:44:06.819Z,325
2016-02-19T10:45:09.526Z,325
2016-02-19T10:46:07.091Z,325
2016-02-19T10:47:06.062Z,325
2016-02-19T10:48:05.814Z,330
2016-02-19T10:49:06.989Z,330
2016-02-19T10:50:06.742Z,330
2016-02-19T10:51:07.120Z,330
2016-02-19T10:52:06.733Z,340
2016-02-19T10:53:06.250Z,335
2016-02-19T10:54:06.566Z,330
2016-02-19T10:55:07.866Z,330
2016-02-19T10:56:06.727Z,325
2016-02-19T10:57:06.526Z,325
2016-02-19T10:58:06.748Z,320
2016-02-19T10:59:06.610Z,325
2016-02-19T11:00:06.707Z,320
2016-02-19T11:01:06.819Z,320
2016-02-19T11:02:06.946Z,320
2016-02-19T11:03:06.776Z,320
2016-02-19T11:04:06.655Z,325
2016-02-19T11:05:06.892Z,325
2016-02-19T11:06:06.550Z,325
2016-02-19T11:07:08.257Z,325
2016-02-19T11:08:07.181Z,325
2016-02-19T11:09:07.543Z,325
2016-02-19T11:10:06.796Z,325
2016-02-19T11:11:06.720Z,325
2016-02-19T11:12:06.551Z,325
2016-02-19T11:13:06.554Z,320
2016-02-19T11:14:07.962Z,320
2016-02-19T11:15:06.465Z,320
2016-02-19T11:16:06.734Z,320
2016-02-19T11:17:06.784Z,315
2016-02-19T11:18:06.442Z,315
2016-02-19T11:19:06.601Z,315
2016-02-19T11:20:06.901Z,310
2016-02-19T11:21:06.528Z,310
2016-02-19T11:22:06.625Z,310
2016-02-19T11:23:06.705Z,305
2016-02-19T11:24:06.661Z,305
2016-02-19T11:25:06.680Z,300
2016-02-19T11:26:06.792Z,305
2016-02-19T11:27:06.513Z,305
2016-02-19T11:28:06.454Z,305
2016-02-19T11:29:06.644Z,310
2016-02-19T11:30:06.724Z,325
2016-02-19T11:31:06.555Z,330
2016-02-19T11:32:06.746Z,340
2016-02-19T11:33:06.810Z,335
2016-02-19T11:34:05.798Z,320
2016-02-19T11:35:06.754Z,315
2016-02-19T11:36:06.631Z,320
2016-02-19T11:37:06.588Z,315
2016-02-19T11:38:06.762Z,305
2016-02-19T11:39:06.764Z,290
2016-02-19T11:40:06.580Z,285
2016-02-19T11:41:09.754Z,285
2016-02-19T11:42:06.741Z,290
2016-02-19T11:43:06.603Z,285
2016-02-19T11:44:06.856Z,280
2016-02-19T11:45:06.670Z,275
2016-02-19T11:46:06.799Z,280
2016-02-19T11:47:06.583Z,280
2016-02-19T11:48:06.538Z,280
2016-02-19T11:49:05.807Z,290
2016-02-19T11:50:06.700Z,295
2016-02-19T11:51:06.577Z,295
2016-02-19T11:52:06.564Z,295
2016-02-19T11:53:06.521Z,295
2016-02-19T11:54:06.539Z,295
2016-02-19T11:55:06.558Z,290
2016-02-19T11:56:06.654Z,290
2016-02-19T11:57:06.703Z,290
2016-02-19T11:58:06.581Z,290
2016-02-19T11:59:06.552Z,295
2016-02-19T12:00:06.696Z,305
2016-02-19T12:01:06.589Z,315
2016-02-19T12:02:05.998Z,310
2016-02-19T12:03:06.095Z,310
2016-02-19T12:04:06.113Z,320
2016-02-19T12:05:06.116Z,330
2016-02-19T12:06:06.494Z,345
2016-02-19T12:07:05.871Z,350
2016-02-19T12:08:06.671Z,340
2016-02-19T12:09:06.642Z,330
2016-02-19T12:10:06.457Z,315
2016-02-19T12:11:08.162Z,300
2016-02-19T12:12:06.479Z,290
2016-02-19T12:13:06.684Z,280
2016-02-19T12:14:06.577Z,265
2016-02-19T12:15:06.799Z,265
2016-02-19T12:16:06.692Z,265
2016-02-19T12:17:06.100Z,255
2016-02-19T12:18:06.510Z,250
2016-02-19T12:19:06.716Z,250
2016-02-19T12:20:06.609Z,250
2016-02-19T12:21:06.456Z,250
2016-02-19T12:22:06.474Z,240
2016-02-19T12:23:06.680Z,235
2016-02-19T12:24:06.713Z,235
2016-02-19T12:25:06.388Z,245
2016-02-19T12:26:06.765Z,250
2016-02-19T12:27:06.877Z,260
2016-02-19T12:28:06.646Z,265
2016-02-19T12:29:06.555Z,270
2016-02-19T12:30:06.746Z,275
2016-02-19T12:31:06.388Z,275
2016-02-19T12:32:06.579Z,265
2016-02-19T12:33:07.457Z,260
2016-02-19T12:34:34.474Z,260
2016-02-19T12:35:06.509Z,265
2016-02-19T12:36:06.371Z,270
2016-02-19T12:37:06.593Z,275
2016-02-19T12:38:06.579Z,270
2016-02-19T12:39:06.660Z,270
2016-02-19T12:40:06.788Z,275
2016-02-19T12:41:06.665Z,275
2016-02-19T12:42:06.495Z,275
2016-02-19T12:43:06.531Z,280
2016-02-19T12:44:06.517Z,285
2016-02-19T12:45:06.786Z,290
2016-02-19T12:46:06.429Z,290
2016-02-19T12:47:06.353Z,290
2016-02-19T12:48:06.481Z,280
2016-02-19T12:49:06.234Z,275
2016-02-19T12:50:06.549Z,280
2016-02-19T12:51:09.005Z,280
2016-02-19T12:52:06.117Z,290
2016-02-19T12:53:06.853Z,290
2016-02-19T12:54:06.404Z,290
2016-02-19T12:55:06.703Z,290
2016-02-19T12:56:06.658Z,295
2016-02-19T12:57:06.708Z,300
2016-02-19T12:58:06.461Z,300
2016-02-19T12:59:06.244Z,305
2016-02-19T13:00:06.295Z,310
2016-02-19T13:01:20.844Z,310
2016-02-19T13:02:06.160Z,310
2016-02-19T13:03:06.005Z,310
2016-02-19T13:04:06.399Z,305
2016-02-19T13:05:06.386Z,305
2016-02-19T13:06:06.154Z,295
2016-02-19T13:07:06.001Z,295
2016-02-19T13:08:06.238Z,295
2016-02-19T13:09:06.443Z,295
2016-02-19T13:10:05.338Z,295
2016-02-19T13:11:06.121Z,295
2016-02-19T13:12:05.920Z,300
2016-02-19T13:13:06.674Z,300
2016-02-19T13:14:06.051Z,305
2016-02-19T13:15:05.584Z,305
2016-02-19T13:16:06.370Z,305
2016-02-19T13:17:06.215Z,305
2016-02-19T13:18:06.015Z,305
2016-02-19T13:19:06.095Z,305
2016-02-19T13:20:06.051Z,300
2016-02-19T13:21:05.992Z,300
2016-02-19T13:22:06.213Z,300
2016-02-19T13:23:06.325Z,310
2016-02-19T13:24:06.078Z,305
2016-02-19T13:25:06.564Z,305
2016-02-19T13:26:09.036Z,305
2016-02-19T13:27:06.774Z,305
2016-02-19T13:28:07.510Z,305
2016-02-19T13:29:06.294Z,305
2016-02-19T13:30:06.938Z,300
2016-02-19T13:31:06.690Z,300
2016-02-19T13:32:06.569Z,300
2016-02-19T13:33:06.165Z,290
2016-02-19T13:34:08.293Z,285
2016-02-19T13:35:05.966Z,285
2016-02-19T13:36:11.188Z,285
2016-02-19T13:37:06.410Z,285
2016-02-19T13:38:06.599Z,280
2016-02-19T13:39:06.352Z,275
2016-02-19T13:40:06.511Z,275
2016-02-19T13:41:06.608Z,275
2016-02-19T13:42:06.346Z,270
2016-02-19T13:43:06.457Z,265
2016-02-19T13:44:05.990Z,265
2016-02-19T13:45:05.963Z,265
2016-02-19T13:46:06.496Z,265
2016-02-19T13:47:05.983Z,270
2016-02-19T13:48:05.971Z,270
2016-02-19T13:49:06.208Z,270
2016-02-19T13:50:06.070Z,265
2016-02-19T13:51:06.448Z,260
2016-02-19T13:52:07.216Z,255
2016-02-19T13:53:06.328Z,255
2016-02-19T13:54:06.549Z,255
2016-02-19T13:55:06.833Z,255
2016-02-19T13:56:08.555Z,250
2016-02-19T13:57:07.088Z,255
2016-02-19T13:58:06.389Z,260
2016-02-19T13:59:06.610Z,260
2016-02-19T14:00:06.643Z,270
2016-02-19T14:01:07.584Z,280
2016-02-19T14:02:06.758Z,285
2016-02-19T14:03:06.995Z,280
2016-02-19T14:04:06.686Z,270
2016-02-19T14:05:07.188Z,260
2016-02-19T14:06:07.488Z,255
2016-02-19T14:07:07.632Z,250
2016-02-19T14:08:08.118Z,255
2016-02-19T14:09:08.262Z,255
2016-02-19T14:10:07.107Z,260
2016-02-19T14:11:06.548Z,260
2016-02-19T14:12:05.941Z,260
2016-02-19T14:13:06.257Z,260
2016-02-19T14:14:06.118Z,245